createdAt,value
2022-11-04T00:03:08.714Z,98943.00
2022-11-04T00:08:25.266Z,98957.03
2022-11-04T00:13:30.051Z,98980.34
2022-11-04T00:18:31.422Z,98999.00
2022-11-04T00:23:51.173Z,98995.50
2022-11-04T00:28:54.138Z,99001.00
2022-11-04T00:33:57.624Z,98998.72
2022-11-04T00:38:58.948Z,98999.72
2022-11-04T00:44:04.883Z,98992.06
2022-11-04T00:49:06.390Z,98978.72
2022-11-04T00:54:07.733Z,98985.41
2022-11-04T00:59:13.441Z,98988.72
2022-11-04T01:04:16.115Z,98981.22
2022-11-04T01:09:17.780Z,98992.22
2022-11-04T01:14:19.496Z,98997.06
2022-11-04T01:19:20.863Z,99016.44
2022-11-04T01:24:22.250Z,99003.75
2022-11-04T01:29:23.631Z,99007.06
2022-11-04T01:34:24.963Z,99019.56
2022-11-04T01:39:26.350Z,99032.56
2022-11-04T01:44:42.740Z,99030.00
2022-11-04T01:49:48.971Z,99025.00
2022-11-04T01:54:55.263Z,99035.47
2022-11-04T02:00:01.232Z,99023.44
2022-11-04T02:05:02.602Z,99043.63
2022-11-04T02:10:04.237Z,99043.63
2022-11-04T02:15:05.952Z,99026.94
2022-11-04T02:20:25.303Z,99027.56
2022-11-04T02:25:57.734Z,99040.22
2022-11-04T02:31:13.760Z,99041.38
2022-11-04T02:36:46.254Z,99035.41
2022-11-04T02:42:01.120Z,99046.72
2022-11-04T02:47:07.641Z,99042.03
2022-11-04T02:52:12.350Z,99051.69
2022-11-04T02:57:18.173Z,99064.16
2022-11-04T03:02:26.223Z,99067.28
2022-11-04T03:07:31.957Z,99077.25
2022-11-04T03:12:39.965Z,99060.91
2022-11-04T03:18:10.502Z,99068.06
2022-11-04T03:23:13.122Z,99068.69
2022-11-04T03:28:43.502Z,99078.63
2022-11-04T03:33:49.265Z,99068.94
2022-11-04T03:38:52.510Z,99123.81
2022-11-04T03:43:53.794Z,99095.81
2022-11-04T03:48:55.856Z,99102.78
2022-11-04T03:53:58.276Z,99110.22
2022-11-04T03:58:59.554Z,99127.88
2022-11-04T04:04:19.630Z,99125.22
2022-11-04T04:09:32.308Z,99143.03
2022-11-04T04:14:40.912Z,99156.19
2022-11-04T04:19:48.157Z,99150.31
2022-11-04T04:25:13.970Z,99150.63
2022-11-04T04:30:17.204Z,99134.44
2022-11-04T04:35:40.858Z,99158.53
2022-11-04T04:41:02.240Z,99158.00
2022-11-04T04:46:03.637Z,99154.41
2022-11-04T04:51:05.149Z,99157.53
2022-11-04T04:56:06.553Z,99163.41
2022-11-04T05:01:09.035Z,99149.69
2022-11-04T05:06:10.428Z,99142.41
2022-11-04T05:11:12.231Z,99145.84
2022-11-04T05:16:13.610Z,99138.00
2022-11-04T05:21:16.033Z,99133.56
2022-11-04T05:26:17.584Z,99132.06
2022-11-04T05:31:18.936Z,99141.03
2022-11-04T05:36:20.268Z,99155.00
2022-11-04T05:41:28.445Z,99154.72
2022-11-04T05:46:30.705Z,99144.78
2022-11-04T05:51:33.384Z,99135.72
2022-11-04T05:56:34.829Z,99146.66
2022-11-04T06:01:40.742Z,99153.09
2022-11-04T06:06:42.311Z,99146.34
2022-11-04T06:11:43.854Z,99146.06
2022-11-04T06:16:45.171Z,99144.97
2022-11-04T06:21:46.638Z,99141.81
2022-11-04T06:26:48.038Z,99145.09
2022-11-04T06:31:49.446Z,99143.59
2022-11-04T06:36:50.959Z,99163.78
2022-11-04T06:41:53.046Z,99166.69
2022-11-04T06:46:57.097Z,99194.34
2022-11-04T06:52:00.987Z,99196.03
2022-11-04T06:57:02.934Z,99188.50
2022-11-04T07:02:04.908Z,99193.75
2022-11-04T07:07:06.284Z,99201.13
2022-11-04T07:12:07.654Z,99209.91
2022-11-04T07:17:09.151Z,99206.31
2022-11-04T07:22:10.656Z,99214.50
2022-11-04T07:27:12.013Z,99212.09
2022-11-04T07:32:13.322Z,99228.22
2022-11-04T07:37:14.641Z,99227.38
2022-11-04T07:42:15.986Z,99225.25
2022-11-04T07:47:17.369Z,99225.72
2022-11-04T07:52:18.654Z,99234.44
2022-11-04T07:57:20.013Z,99241.25
2022-11-04T08:02:26.559Z,99240.38
2022-11-04T08:07:30.627Z,99244.63
2022-11-04T08:12:32.375Z,99241.69
2022-11-04T08:17:33.846Z,99256.00
2022-11-04T08:22:35.594Z,99256.47
2022-11-04T08:27:36.910Z,99241.31
2022-11-04T08:32:38.249Z,99237.56
2022-11-04T08:37:39.576Z,99230.56
2022-11-04T08:42:40.934Z,99235.66
2022-11-04T08:47:42.266Z,99226.69
2022-11-04T08:52:43.572Z,99222.09
2022-11-04T08:57:44.971Z,99219.59
2022-11-04T09:02:46.684Z,99221.09
2022-11-04T09:07:47.995Z,99216.69
2022-11-04T09:12:49.387Z,99238.78
2022-11-04T09:17:50.671Z,99244.63
2022-11-04T09:22:53.086Z,99244.41
2022-11-04T09:27:56.338Z,99249.72
2022-11-04T09:32:58.327Z,99258.06
2022-11-04T09:38:01.277Z,99252.47
2022-11-04T09:43:28.699Z,99248.28
2022-11-04T09:48:45.410Z,99241.47
2022-11-04T09:53:49.117Z,99250.25
2022-11-04T09:58:51.270Z,99258.63
2022-11-04T10:04:01.653Z,99271.22
2022-11-04T10:09:18.094Z,99272.56
2022-11-04T10:14:55.275Z,99269.88
2022-11-04T10:20:12.243Z,99269.56
2022-11-04T10:25:16.902Z,99262.91
2022-11-04T10:30:23.997Z,99244.53
2022-11-04T10:35:31.555Z,99247.84
2022-11-04T10:40:38.692Z,99226.38
2022-11-04T10:46:08.186Z,99225.75
2022-11-04T10:51:09.518Z,99211.25
2022-11-04T10:56:20.277Z,99214.16
2022-11-04T11:01:31.303Z,99204.75
2022-11-04T11:06:35.614Z,99206.06
2022-11-04T11:11:51.823Z,99201.03
2022-11-04T11:16:53.570Z,99206.50
2022-11-04T11:21:56.849Z,99207.97
2022-11-04T11:27:01.280Z,99203.56
2022-11-04T11:32:03.561Z,99204.53
2022-11-04T11:37:19.075Z,99212.63
2022-11-04T11:42:21.029Z,99210.09
2022-11-04T11:47:25.117Z,99215.19
2022-11-04T11:52:35.161Z,99200.59
2022-11-04T12:03:24.001Z,99201.88
2022-11-04T12:14:05.714Z,99195.09
2022-11-04T12:19:36.428Z,99183.94
2022-11-04T12:25:02.784Z,99188.53
2022-11-04T12:30:10.314Z,99187.44
2022-11-04T12:35:26.012Z,99180.53
2022-11-04T12:46:37.303Z,99189.34
2022-11-04T12:52:00.397Z,99185.63
2022-11-04T12:57:13.145Z,99194.75
2022-11-04T13:02:23.921Z,99206.47
2022-11-04T13:07:33.520Z,99196.03
2022-11-04T13:12:43.541Z,99200.44
2022-11-04T13:17:47.418Z,99203.53
2022-11-04T13:22:50.137Z,99217.41
2022-11-04T13:27:51.679Z,99225.06
2022-11-04T13:33:19.232Z,99234.78
2022-11-04T13:38:27.302Z,99243.00
2022-11-04T13:43:38.449Z,99243.81
2022-11-04T13:48:50.642Z,99250.69
2022-11-04T13:53:55.656Z,99259.44
2022-11-04T13:59:02.361Z,99261.56
2022-11-04T14:04:12.648Z,99266.66
2022-11-04T14:09:42.983Z,99277.56
2022-11-04T14:14:51.148Z,99283.97
2022-11-04T14:19:57.850Z,99293.06
2022-11-04T14:25:02.379Z,99293.75
2022-11-04T14:30:04.238Z,99295.81
2022-11-04T14:35:08.724Z,99305.34
2022-11-04T14:40:25.411Z,99311.41
2022-11-04T14:45:38.542Z,99307.22
2022-11-04T14:50:45.054Z,99314.09
2022-11-04T14:55:46.366Z,99304.56
2022-11-04T15:00:50.771Z,99311.25
2022-11-04T15:06:00.595Z,99313.78
2022-11-04T15:11:15.579Z,99321.81
2022-11-04T15:16:28.532Z,99334.50
2022-11-04T15:21:29.932Z,99345.81
2022-11-04T15:26:33.935Z,99356.19
2022-11-04T15:31:36.602Z,99347.69
2022-11-04T15:36:42.563Z,99353.34
2022-11-04T15:42:03.959Z,99342.66
2022-11-04T15:47:17.223Z,99360.72
2022-11-04T15:52:23.349Z,99380.28
2022-11-04T15:57:28.926Z,99370.75
2022-11-04T16:02:33.726Z,99378.09
2022-11-04T16:07:38.364Z,99389.31
2022-11-04T16:12:43.812Z,99394.81
2022-11-04T16:17:45.304Z,99402.66
2022-11-04T16:22:46.956Z,99398.66
2022-11-04T16:27:49.259Z,99406.69
2022-11-04T16:32:54.195Z,99407.84
2022-11-04T16:37:56.549Z,99412.72
2022-11-04T16:42:57.965Z,99422.38
2022-11-04T16:47:59.326Z,99428.06
2022-11-04T16:53:02.336Z,99432.91
2022-11-04T16:58:07.261Z,99434.88
2022-11-04T17:03:22.811Z,99436.84
2022-11-04T17:08:25.440Z,99445.41
2022-11-04T17:13:29.836Z,99445.72
2022-11-04T17:18:35.231Z,99450.22
2022-11-04T17:23:36.872Z,99455.38
2022-11-04T17:28:38.338Z,99469.06
2022-11-04T17:33:39.774Z,99473.69
2022-11-04T17:38:41.098Z,99478.03
2022-11-04T17:44:00.521Z,99484.06
2022-11-04T17:49:07.851Z,99491.41
2022-11-04T17:54:10.029Z,99503.19
2022-11-04T17:59:13.331Z,99515.91
2022-11-04T18:04:20.787Z,99522.38
2022-11-04T18:09:22.130Z,99525.13
2022-11-04T18:14:23.712Z,99523.25
2022-11-04T18:19:26.487Z,99519.22
2022-11-04T18:24:28.115Z,99532.28
2022-11-04T18:29:29.505Z,99535.31
2022-11-04T18:34:30.845Z,99552.00
2022-11-04T18:39:32.191Z,99555.31
2022-11-04T18:44:33.673Z,99562.53
2022-11-04T18:49:35.240Z,99562.69
2022-11-04T18:54:36.538Z,99567.69
2022-11-04T18:59:38.347Z,99571.97
2022-11-04T19:04:39.648Z,99575.78
2022-11-04T19:09:46.702Z,99588.31
2022-11-04T19:14:49.097Z,99591.94
2022-11-04T19:19:51.304Z,99604.94
2022-11-04T19:24:53.038Z,99606.53
2022-11-04T19:29:54.427Z,99605.47
2022-11-04T19:34:55.736Z,99613.25
2022-11-04T19:39:57.040Z,99615.53
2022-11-04T19:44:58.399Z,99621.94
2022-11-04T19:49:59.686Z,99631.50
2022-11-04T19:55:00.974Z,99629.28
2022-11-04T20:00:03.501Z,99635.69
2022-11-04T20:05:05.588Z,99643.31
2022-11-04T20:10:07.787Z,99648.50
2022-11-04T20:15:09.726Z,99665.19
2022-11-04T20:20:11.142Z,99669.53
2022-11-04T20:25:12.576Z,99680.06
2022-11-04T20:30:13.968Z,99679.06
2022-11-04T20:35:15.299Z,99684.56
2022-11-04T20:40:16.824Z,99697.16
2022-11-04T20:45:19.287Z,99700.53
2022-11-04T20:50:20.654Z,99696.50
2022-11-04T20:55:22.906Z,99709.03
2022-11-04T21:00:24.211Z,99724.06
2022-11-04T21:05:25.481Z,99725.34
2022-11-04T21:10:26.847Z,99732.78
2022-11-04T21:15:40.649Z,99737.72
2022-11-04T21:20:42.990Z,99742.84
2022-11-04T21:25:47.255Z,99750.19
2022-11-04T21:30:51.132Z,99758.47
2022-11-04T21:35:52.476Z,99757.47
2022-11-04T21:41:03.406Z,99756.78
2022-11-04T21:46:10.343Z,99761.16
2022-11-04T21:51:14.777Z,99769.03
2022-11-04T21:56:17.671Z,99763.97
2022-11-04T22:01:22.134Z,99766.25
2022-11-04T22:06:24.973Z,99788.28
2022-11-04T22:11:31.148Z,99786.31
2022-11-04T22:16:34.757Z,99795.72
2022-11-04T22:21:38.706Z,99798.50
2022-11-04T22:26:40.383Z,99802.44
2022-11-04T22:31:42.985Z,99799.94
2022-11-04T22:36:44.412Z,99803.44
2022-11-04T22:41:46.564Z,99807.94
2022-11-04T22:47:02.289Z,99812.31
2022-11-04T22:52:05.314Z,99822.16
2022-11-04T22:57:06.619Z,99817.41
2022-11-04T23:02:08.095Z,99832.75
2022-11-04T23:07:09.500Z,99823.19
2022-11-04T23:12:29.547Z,99830.66
2022-11-04T23:17:49.516Z,99829.63
2022-11-04T23:23:09.396Z,99831.63
2022-11-04T23:28:29.438Z,99839.06
2022-11-04T23:33:49.402Z,99839.91
2022-11-04T23:38:50.785Z,99857.91
2022-11-04T23:43:53.008Z,99852.25
2022-11-04T23:49:12.906Z,99861.66
2022-11-04T23:54:32.735Z,99862.66
2022-11-04T23:59:52.481Z,99874.41
